METAR Data
IDs: Format: Raw Decoded Include TAF

Data at: 0221 UTC 20 Jan 2022

LIMU 192355Z 04006KT 9999 SCT020 10/08 Q1022 RMK BKN QUK / QUL / VIS MAR 25 KM VIS MIN 9999